Time;durP1;ratioP1;P1;durP2;ratioP2;P2;SDS_P1;SDS_P2;PMS_P1;PMS_P2;Temp;Humidity;BMP_temperature;BMP_pressure;BME280_temperature;BME280_humidity;BME280_pressure;Samples;Min_cycle;Max_cycle;Signal;HPM_P1;HPM_P2
2021/01/16 00:00:14;;;;;;;;;;;2.10;99.90;;;;;;5085789;28;19927;-81
2021/01/16 00:02:40;;;;;;;;;;;2.10;99.90;;;;;;5087232;28;20351;-82
2021/01/16 00:05:05;;;;;;;;;;;2.10;99.90;;;;;;5083358;28;19908;-82
2021/01/16 00:07:31;;;;;;;;;;;2.10;99.90;;;;;;5102202;28;19907;-81
2021/01/16 00:09:56;;;;;;;;;;;2.00;99.90;;;;;;5111086;28;19949;-82
2021/01/16 00:12:22;;;;;;;;;;;2.00;99.90;;;;;;5102353;28;19999;-82
2021/01/16 00:14:47;;;;;;;;;;;1.90;99.90;;;;;;5084610;28;19996;-82
2021/01/16 00:17:12;;;;;;;;;;;1.90;99.90;;;;;;5111004;28;19950;-82
2021/01/16 00:19:38;;;;;;;;;;;1.80;99.90;;;;;;5101489;28;19904;-82
2021/01/16 00:22:03;;;;;;;;;;;1.80;99.90;;;;;;5085002;28;19914;-82
2021/01/16 00:24:30;;;;;;;;;;;1.80;99.90;;;;;;5103280;28;19904;-82
2021/01/16 00:26:55;;;;;;;;;;;1.80;99.90;;;;;;5083853;28;19911;-82
2021/01/16 00:29:20;;;;;;;;;;;1.80;99.90;;;;;;5085195;28;19904;-82
2021/01/16 00:31:46;;;;;;;;;;;1.90;99.90;;;;;;5110051;28;19998;-82
2021/01/16 00:34:11;;;;;;;;;;;1.90;99.90;;;;;;5083799;28;19959;-81
2021/01/16 00:36:37;;;;;;;;;;;1.90;99.90;;;;;;5103772;28;19925;-82
2021/01/16 00:39:02;;;;;;;;;;;1.90;99.90;;;;;;5109374;28;19904;-81
2021/01/16 00:41:28;;;;;;;;;;;1.90;99.90;;;;;;5084247;28;19951;-81
2021/01/16 00:43:53;;;;;;;;;;;2.00;99.90;;;;;;5103818;28;20375;-81
2021/01/16 00:46:18;;;;;;;;;;;2.00;99.90;;;;;;5086672;28;20403;-81
2021/01/16 00:48:45;;;;;;;;;;;2.00;99.90;;;;;;5088263;28;20283;-81
2021/01/16 00:51:10;;;;;;;;;;;2.00;99.90;;;;;;5114204;28;19904;-81
2021/01/16 00:53:35;;;;;;;;;;;2.10;99.90;;;;;;5086984;28;20059;-81
2021/01/16 00:56:01;;;;;;;;;;;2.10;99.90;;;;;;5097888;28;19927;-82
2021/01/16 00:58:29;;;;;;;;;;;2.20;99.90;;;;;;5067784;28;19911;-82
2021/01/16 01:00:55;;;;;;;;;;;2.20;99.90;;;;;;5068641;28;20057;-82
2021/01/16 01:03:21;;;;;;;;;;;2.20;99.90;;;;;;5092141;28;19953;-81
2021/01/16 01:05:47;;;;;;;;;;;2.10;99.90;;;;;;5085713;28;19904;-82
2021/01/16 01:08:13;;;;;;;;;;;2.10;99.90;;;;;;5068570;28;19904;-82
2021/01/16 01:10:39;;;;;;;;;;;2.00;99.90;;;;;;5084503;28;19904;-82
2021/01/16 01:13:05;;;;;;;;;;;2.00;99.90;;;;;;5067627;28;19908;-82
2021/01/16 01:15:30;;;;;;;;;;;2.00;99.90;;;;;;5067986;28;19949;-81
2021/01/16 01:18:00;;;;;;;;;;;2.00;99.90;;;;;;5066053;28;19904;-82
2021/01/16 01:20:26;;;;;;;;;;;2.00;99.90;;;;;;5085544;28;20370;-82
2021/01/16 01:22:51;;;;;;;;;;;2.00;99.90;;;;;;5068056;28;19908;-82
2021/01/16 01:25:17;;;;;;;;;;;2.00;99.90;;;;;;5066240;28;19999;-82
2021/01/16 01:27:43;;;;;;;;;;;2.00;99.90;;;;;;5067900;28;19930;-81
2021/01/16 01:30:09;;;;;;;;;;;2.00;99.90;;;;;;5067670;28;20401;-80
2021/01/16 01:32:35;;;;;;;;;;;2.10;99.90;;;;;;5066112;28;19912;-82
2021/01/16 01:35:00;;;;;;;;;;;2.10;99.90;;;;;;5068198;28;20367;-82
2021/01/16 01:37:26;;;;;;;;;;;2.10;99.90;;;;;;5092439;28;20370;-82
2021/01/16 01:39:51;;;;;;;;;;;2.10;99.90;;;;;;5066366;28;19976;-82
2021/01/16 01:42:18;;;;;;;;;;;2.10;99.90;;;;;;5093280;28;19908;-82
2021/01/16 01:44:44;;;;;;;;;;;2.10;99.90;;;;;;5066492;28;19904;-82
2021/01/16 01:47:17;;;;;;;;;;;2.10;99.90;;;;;;5084782;28;19987;-82
2021/01/16 01:49:43;;;;;;;;;;;2.10;99.90;;;;;;5066090;28;19916;-81
2021/01/16 01:52:09;;;;;;;;;;;2.00;99.90;;;;;;5084699;28;20022;-81
2021/01/16 01:54:35;;;;;;;;;;;2.00;99.90;;;;;;5067748;28;19912;-82
2021/01/16 01:57:01;;;;;;;;;;;2.00;99.90;;;;;;5065056;28;20354;-81
2021/01/16 01:59:27;;;;;;;;;;;1.90;99.90;;;;;;5066483;28;19911;-82
2021/01/16 02:01:54;;;;;;;;;;;2.00;99.90;;;;;;5085464;28;20330;-82
2021/01/16 02:04:21;;;;;;;;;;;1.90;99.90;;;;;;5068225;28;19911;-82
2021/01/16 02:06:47;;;;;;;;;;;1.90;99.90;;;;;;5066638;28;19904;-82
2021/01/16 02:09:12;;;;;;;;;;;1.90;99.90;;;;;;5085204;28;19905;-82
2021/01/16 02:11:37;;;;;;;;;;;1.80;99.90;;;;;;5083299;28;20280;-82
2021/01/16 02:14:03;;;;;;;;;;;1.80;99.90;;;;;;5066723;28;19904;-82
2021/01/16 02:16:58;;;;;;;;;;;1.80;99.90;;;;;;5066420;28;19927;-82
2021/01/16 02:19:34;;;;;;;;;;;1.80;99.90;;;;;;5071726;28;19987;-82
2021/01/16 02:21:59;;;;;;;;;;;1.70;99.90;;;;;;5067292;28;19958;-82
2021/01/16 02:24:29;;;;;;;;;;;1.70;99.90;;;;;;5083784;28;19904;-82
2021/01/16 02:27:02;;;;;;;;;;;1.70;99.90;;;;;;5083230;28;20367;-82
2021/01/16 02:29:28;;;;;;;;;;;1.70;99.90;;;;;;5066179;28;19903;-82
2021/01/16 02:32:01;;;;;;;;;;;1.70;99.90;;;;;;5066803;28;20010;-82
2021/01/16 02:34:31;;;;;;;;;;;1.70;99.90;;;;;;5065945;28;19911;-82
2021/01/16 02:37:15;;;;;;;;;;;1.70;99.90;;;;;;5064535;28;20003;-82
2021/01/16 02:39:43;;;;;;;;;;;1.80;99.90;;;;;;5083041;28;19904;-82
2021/01/16 02:42:35;;;;;;;;;;;1.80;99.90;;;;;;5065613;28;19908;-81
2021/01/16 02:45:09;;;;;;;;;;;1.80;99.90;;;;;;5046439;28;20002;-82
2021/01/16 02:47:34;;;;;;;;;;;1.80;99.90;;;;;;5066712;28;19916;-82
2021/01/16 02:50:07;;;;;;;;;;;1.80;99.90;;;;;;5082646;28;19905;-82
2021/01/16 02:52:39;;;;;;;;;;;1.80;99.90;;;;;;5064964;28;19908;-82
2021/01/16 02:55:06;;;;;;;;;;;1.80;99.90;;;;;;5065134;28;20038;-82
2021/01/16 02:57:32;;;;;;;;;;;1.80;99.90;;;;;;5064924;28;20056;-82
2021/01/16 02:59:57;;;;;;;;;;;1.80;99.90;;;;;;5066266;28;19953;-82
2021/01/16 03:02:23;;;;;;;;;;;1.80;99.90;;;;;;5064716;28;19909;-82
2021/01/16 03:04:48;;;;;;;;;;;1.80;99.90;;;;;;5065305;28;20363;-82
2021/01/16 03:07:15;;;;;;;;;;;1.80;99.90;;;;;;5065851;28;19912;-82
2021/01/16 03:09:41;;;;;;;;;;;1.80;99.90;;;;;;5066422;28;19904;-82
2021/01/16 03:12:10;;;;;;;;;;;1.80;99.90;;;;;;5090369;28;19911;-82
2021/01/16 03:14:55;;;;;;;;;;;1.80;99.90;;;;;;5063923;28;20319;-82
2021/01/16 03:17:41;;;;;;;;;;;1.80;99.90;;;;;;5082415;28;19905;-82
2021/01/16 03:20:07;;;;;;;;;;;1.80;99.90;;;;;;5082555;28;19950;-82
2021/01/16 03:22:32;;;;;;;;;;;1.80;99.90;;;;;;5064346;28;19908;-82
2021/01/16 03:24:58;;;;;;;;;;;1.80;99.90;;;;;;5084181;28;19911;-82
2021/01/16 03:27:24;;;;;;;;;;;1.80;99.90;;;;;;5064493;28;19995;-82
2021/01/16 03:29:50;;;;;;;;;;;1.80;99.90;;;;;;5082868;28;19904;-82
2021/01/16 03:32:16;;;;;;;;;;;1.80;99.90;;;;;;5065953;28;19919;-82
2021/01/16 03:34:42;;;;;;;;;;;1.80;99.90;;;;;;5082176;28;19904;-81
2021/01/16 03:37:08;;;;;;;;;;;1.80;99.90;;;;;;5065067;28;19904;-82
2021/01/16 03:39:34;;;;;;;;;;;1.80;99.90;;;;;;5065654;28;19904;-81
2021/01/16 03:42:00;;;;;;;;;;;1.90;99.90;;;;;;5063694;28;19949;-82
2021/01/16 03:44:25;;;;;;;;;;;1.90;99.90;;;;;;5065405;28;19908;-81
2021/01/16 03:46:51;;;;;;;;;;;1.90;99.90;;;;;;5090660;28;19909;-81
2021/01/16 03:49:16;;;;;;;;;;;1.90;99.90;;;;;;5081859;28;19904;-82
2021/01/16 03:51:42;;;;;;;;;;;1.90;99.90;;;;;;5065805;28;19908;-82
2021/01/16 03:54:08;;;;;;;;;;;2.00;99.90;;;;;;5082793;28;19904;-82
2021/01/16 03:56:33;;;;;;;;;;;1.90;99.90;;;;;;5084465;28;19916;-82
2021/01/16 03:58:59;;;;;;;;;;;1.90;99.90;;;;;;5063658;28;19905;-82
2021/01/16 04:01:24;;;;;;;;;;;1.90;99.90;;;;;;5065199;28;19908;-82
2021/01/16 04:03:50;;;;;;;;;;;1.90;99.90;;;;;;5090201;28;20363;-82
2021/01/16 04:06:15;;;;;;;;;;;1.80;99.90;;;;;;5081907;28;20369;-82
2021/01/16 04:08:41;;;;;;;;;;;1.80;99.90;;;;;;5065696;28;20435;-82
2021/01/16 04:11:06;;;;;;;;;;;1.80;99.90;;;;;;5082653;28;19905;-82
2021/01/16 04:13:32;;;;;;;;;;;1.80;99.90;;;;;;5064201;28;19998;-82
2021/01/16 04:15:57;;;;;;;;;;;1.80;99.90;;;;;;5090852;28;19904;-82
2021/01/16 04:18:23;;;;;;;;;;;1.80;99.90;;;;;;5089115;28;19981;-82
2021/01/16 04:20:48;;;;;;;;;;;1.80;99.90;;;;;;5066947;28;19904;-82
2021/01/16 04:23:14;;;;;;;;;;;1.80;99.90;;;;;;5094486;28;19911;-82
2021/01/16 04:25:39;;;;;;;;;;;1.80;99.90;;;;;;5085395;28;19911;-82
2021/01/16 04:28:04;;;;;;;;;;;1.90;99.90;;;;;;5068996;28;19911;-82
2021/01/16 04:30:30;;;;;;;;;;;1.90;99.90;;;;;;5093959;28;20436;-82
2021/01/16 04:32:55;;;;;;;;;;;1.80;99.90;;;;;;5085364;28;19912;-82
2021/01/16 04:35:21;;;;;;;;;;;1.90;99.90;;;;;;5092302;28;19904;-83
2021/01/16 04:37:46;;;;;;;;;;;1.90;99.90;;;;;;5086598;28;20417;-82
2021/01/16 04:40:12;;;;;;;;;;;1.90;99.90;;;;;;5094051;28;20286;-82
2021/01/16 04:42:41;;;;;;;;;;;1.80;99.90;;;;;;5067004;28;20375;-82
2021/01/16 04:45:08;;;;;;;;;;;1.80;99.90;;;;;;5068455;28;19904;-82
2021/01/16 04:47:33;;;;;;;;;;;1.80;99.90;;;;;;5068688;28;19943;-82
2021/01/16 04:50:00;;;;;;;;;;;1.80;99.90;;;;;;5066934;28;19944;-82
2021/01/16 04:52:27;;;;;;;;;;;1.80;99.90;;;;;;5068246;28;19911;-82
2021/01/16 04:54:54;;;;;;;;;;;1.80;99.90;;;;;;5086630;28;19984;-82
2021/01/16 04:57:19;;;;;;;;;;;1.80;99.90;;;;;;5105231;28;19908;-82
2021/01/16 04:59:45;;;;;;;;;;;1.80;99.90;;;;;;5088614;28;19911;-82
2021/01/16 05:02:13;;;;;;;;;;;1.80;99.90;;;;;;5092059;28;19915;-82
2021/01/16 05:04:39;;;;;;;;;;;1.70;99.90;;;;;;5094782;28;20343;-82
2021/01/16 05:07:06;;;;;;;;;;;1.70;99.90;;;;;;5130291;27;20371;-82
2021/01/16 05:09:33;;;;;;;;;;;1.70;99.90;;;;;;5093984;28;19994;-82
2021/01/16 05:12:17;;;;;;;;;;;1.70;99.90;;;;;;5095285;28;19904;-82
2021/01/16 05:14:59;;;;;;;;;;;1.70;99.90;;;;;;5079609;28;20302;-82
2021/01/16 05:17:25;;;;;;;;;;;1.80;99.90;;;;;;5094508;28;19938;-82
2021/01/16 05:19:51;;;;;;;;;;;1.90;99.90;;;;;;5091761;28;19957;-82
2021/01/16 05:22:17;;;;;;;;;;;1.90;99.90;;;;;;5091378;28;20006;-83
2021/01/16 05:24:42;;;;;;;;;;;1.80;99.90;;;;;;5096070;28;20006;-82
2021/01/16 05:27:08;;;;;;;;;;;1.80;99.90;;;;;;5114347;28;19911;-83
2021/01/16 05:29:34;;;;;;;;;;;1.80;99.90;;;;;;5114385;28;19903;-82
2021/01/16 05:32:01;;;;;;;;;;;1.80;99.90;;;;;;5095942;28;20366;-82
2021/01/16 05:34:27;;;;;;;;;;;1.80;99.90;;;;;;5091588;28;19904;-82
2021/01/16 05:36:52;;;;;;;;;;;1.70;99.90;;;;;;5091438;28;20002;-82
2021/01/16 05:39:19;;;;;;;;;;;1.80;99.90;;;;;;5113325;28;19939;-82
2021/01/16 05:41:45;;;;;;;;;;;1.80;99.90;;;;;;5111956;28;19951;-82
2021/01/16 05:44:10;;;;;;;;;;;1.80;99.90;;;;;;5091336;28;19904;-82
2021/01/16 05:46:36;;;;;;;;;;;1.80;99.90;;;;;;5090659;28;19904;-82
2021/01/16 05:49:05;;;;;;;;;;;1.80;99.90;;;;;;5093810;28;19957;-82
2021/01/16 05:51:30;;;;;;;;;;;1.70;99.90;;;;;;5091330;28;19956;-82
2021/01/16 05:53:56;;;;;;;;;;;1.70;99.90;;;;;;5091901;28;19999;-82
2021/01/16 05:56:23;;;;;;;;;;;1.70;99.90;;;;;;5091021;28;19950;-82
2021/01/16 05:58:50;;;;;;;;;;;1.70;99.90;;;;;;5091002;28;19976;-82
2021/01/16 06:01:22;;;;;;;;;;;1.70;99.90;;;;;;5090831;28;19956;-82
2021/01/16 06:03:50;;;;;;;;;;;1.70;99.90;;;;;;5090846;28;19908;-83
2021/01/16 06:06:15;;;;;;;;;;;1.60;99.90;;;;;;5096357;28;19908;-82
2021/01/16 06:08:48;;;;;;;;;;;1.60;99.90;;;;;;5093410;28;19911;-82
2021/01/16 06:11:14;;;;;;;;;;;1.60;99.90;;;;;;5089587;28;20249;-82
2021/01/16 06:13:41;;;;;;;;;;;1.60;99.90;;;;;;5096164;28;19974;-82
2021/01/16 06:16:12;;;;;;;;;;;1.60;99.90;;;;;;5089013;28;19904;-82
2021/01/16 06:18:43;;;;;;;;;;;1.60;99.90;;;;;;5093469;28;20003;-82
2021/01/16 06:21:09;;;;;;;;;;;1.60;99.90;;;;;;5089844;28;19940;-82
2021/01/16 06:23:38;;;;;;;;;;;1.60;99.90;;;;;;5093877;28;20427;-82
2021/01/16 06:26:07;;;;;;;;;;;1.60;99.90;;;;;;5112898;28;20359;-82
2021/01/16 06:28:39;;;;;;;;;;;1.60;99.90;;;;;;5088944;28;19953;-82
2021/01/16 06:31:20;;;;;;;;;;;1.60;99.90;;;;;;5093188;28;20381;-82
2021/01/16 06:33:53;;;;;;;;;;;1.60;99.90;;;;;;5095982;28;19903;-82
2021/01/16 06:36:19;;;;;;;;;;;1.60;99.90;;;;;;5090321;28;19994;-82
2021/01/16 06:38:54;;;;;;;;;;;1.60;99.90;;;;;;5091203;28;19950;-82
2021/01/16 06:41:25;;;;;;;;;;;1.60;99.90;;;;;;5096230;28;20446;-83
2021/01/16 06:43:52;;;;;;;;;;;1.60;99.90;;;;;;5095348;28;19903;-82
2021/01/16 06:46:17;;;;;;;;;;;1.60;99.90;;;;;;5113525;28;19998;-82
2021/01/16 06:48:44;;;;;;;;;;;1.60;99.90;;;;;;5114345;28;20397;-82
2021/01/16 06:51:26;;;;;;;;;;;1.60;99.90;;;;;;5096247;28;20006;-82
2021/01/16 06:53:51;;;;;;;;;;;1.60;99.90;;;;;;5095757;28;19908;-82
2021/01/16 06:56:24;;;;;;;;;;;1.60;99.90;;;;;;5096109;28;19969;-82
2021/01/16 06:58:49;;;;;;;;;;;1.60;99.90;;;;;;5114573;28;19904;-83
2021/01/16 07:01:15;;;;;;;;;;;1.60;99.90;;;;;;5089762;28;19934;-82
2021/01/16 07:03:45;;;;;;;;;;;1.60;99.90;;;;;;5102665;28;19957;-83
2021/01/16 07:06:11;;;;;;;;;;;1.60;99.90;;;;;;5085778;28;19911;-83
2021/01/16 07:08:38;;;;;;;;;;;1.60;99.90;;;;;;5104551;28;19904;-83
2021/01/16 07:11:04;;;;;;;;;;;1.60;99.90;;;;;;5084363;28;19904;-82
2021/01/16 07:13:33;;;;;;;;;;;1.60;99.90;;;;;;5093071;28;20362;-82
2021/01/16 07:16:05;;;;;;;;;;;1.60;99.90;;;;;;5114345;28;19903;-83
2021/01/16 07:18:31;;;;;;;;;;;1.50;99.90;;;;;;5086574;28;19998;-82
2021/01/16 07:20:57;;;;;;;;;;;1.50;99.90;;;;;;5085866;28;19927;-83
2021/01/16 07:23:23;;;;;;;;;;;1.60;99.90;;;;;;5103377;28;20367;-83
2021/01/16 07:25:52;;;;;;;;;;;1.50;99.90;;;;;;5106712;28;20378;-82
2021/01/16 07:28:18;;;;;;;;;;;1.50;99.90;;;;;;5084285;28;19911;-82
2021/01/16 07:30:44;;;;;;;;;;;1.50;99.90;;;;;;5104947;28;20051;-82
2021/01/16 07:33:12;;;;;;;;;;;1.50;99.90;;;;;;5084493;28;20324;-82
2021/01/16 07:35:41;;;;;;;;;;;1.50;99.90;;;;;;5084797;28;20177;-82
2021/01/16 07:38:06;;;;;;;;;;;1.50;99.90;;;;;;5089729;28;19929;-82
2021/01/16 07:40:32;;;;;;;;;;;1.50;99.90;;;;;;5095708;28;19907;-83
2021/01/16 07:43:01;;;;;;;;;;;1.50;99.90;;;;;;5106038;28;20286;-82
2021/01/16 07:45:26;;;;;;;;;;;1.50;99.90;;;;;;5104120;28;19947;-82
2021/01/16 07:47:53;;;;;;;;;;;1.50;99.90;;;;;;5080759;28;19915;-83
2021/01/16 07:50:28;;;;;;;;;;;1.50;99.90;;;;;;5075492;28;20268;-82
2021/01/16 07:53:01;;;;;;;;;;;1.60;99.90;;;;;;5075433;28;20298;-82
2021/01/16 07:55:47;;;;;;;;;;;1.60;99.90;;;;;;5079039;28;19919;-82
2021/01/16 07:58:15;;;;;;;;;;;1.60;99.90;;;;;;5079173;28;19904;-83
2021/01/16 08:00:47;;;;;;;;;;;1.60;99.90;;;;;;5079484;28;20003;-82
2021/01/16 08:03:24;;;;;;;;;;;1.60;99.90;;;;;;5097634;28;19959;-82
2021/01/16 08:06:21;;;;;;;;;;;1.60;99.90;;;;;;5079602;28;19934;-83
2021/01/16 08:09:06;;;;;;;;;;;1.60;99.90;;;;;;5067028;28;19933;-83
2021/01/16 08:11:35;;;;;;;;;;;1.60;99.90;;;;;;5079240;28;19911;-82
2021/01/16 08:14:02;;;;;;;;;;;1.60;99.90;;;;;;5079185;28;19904;-82
2021/01/16 08:16:27;;;;;;;;;;;1.60;99.90;;;;;;5080237;28;19952;-82
2021/01/16 08:19:16;;;;;;;;;;;1.60;99.90;;;;;;5090662;28;19990;-82
2021/01/16 08:21:53;;;;;;;;;;;1.60;99.90;;;;;;5117744;28;19908;-82
2021/01/16 08:24:19;;;;;;;;;;;1.60;99.90;;;;;;5099280;28;19904;-82
2021/01/16 08:26:53;;;;;;;;;;;1.60;99.90;;;;;;5117511;28;20382;-82
2021/01/16 08:29:20;;;;;;;;;;;1.60;99.90;;;;;;5099247;28;19907;-83
2021/01/16 08:31:46;;;;;;;;;;;1.70;99.90;;;;;;5099121;28;19903;-82
2021/01/16 08:34:11;;;;;;;;;;;1.70;99.90;;;;;;5115041;28;19919;-82
2021/01/16 08:36:37;;;;;;;;;;;1.70;99.90;;;;;;5114787;28;19911;-82
2021/01/16 08:39:27;;;;;;;;;;;1.70;99.90;;;;;;5096148;28;20397;-82
2021/01/16 08:42:02;;;;;;;;;;;1.70;99.90;;;;;;5073814;28;20383;-83
2021/01/16 08:44:47;;;;;;;;;;;1.70;99.90;;;;;;5078519;28;20041;-83
2021/01/16 08:47:15;;;;;;;;;;;1.80;99.90;;;;;;5075816;28;20355;-82
2021/01/16 08:49:41;;;;;;;;;;;1.70;99.80;;;;;;5093739;28;19981;-82
2021/01/16 08:52:06;;;;;;;;;;;1.80;99.80;;;;;;5096225;28;19999;-82
2021/01/16 08:54:32;;;;;;;;;;;1.80;99.60;;;;;;5094782;28;19908;-82
2021/01/16 08:57:00;;;;;;;;;;;1.80;99.80;;;;;;5113846;28;19919;-82
2021/01/16 08:59:29;;;;;;;;;;;1.90;99.90;;;;;;5098326;28;20235;-82
2021/01/16 09:02:04;;;;;;;;;;;1.80;99.90;;;;;;5098337;28;19914;-82
2021/01/16 09:04:30;;;;;;;;;;;1.90;99.90;;;;;;5114058;28;19953;-82
2021/01/16 09:07:09;;;;;;;;;;;1.90;99.90;;;;;;5115670;28;20027;-82
2021/01/16 09:09:35;;;;;;;;;;;1.90;99.90;;;;;;5097729;28;19910;-82
2021/01/16 09:12:07;;;;;;;;;;;1.90;99.90;;;;;;5097640;28;20312;-82
2021/01/16 09:14:34;;;;;;;;;;;1.90;99.90;;;;;;5094443;28;19915;-82
2021/01/16 09:17:19;;;;;;;;;;;1.90;99.20;;;;;;5089594;28;19903;-82
2021/01/16 09:19:51;;;;;;;;;;;1.90;98.50;;;;;;5097895;28;19910;-81
2021/01/16 09:22:21;;;;;;;;;;;1.80;98.20;;;;;;5098044;28;20351;-81
2021/01/16 09:24:46;;;;;;;;;;;1.80;98.20;;;;;;5097772;28;19994;-82
2021/01/16 09:27:22;;;;;;;;;;;1.80;98.30;;;;;;5098064;28;19994;-81
2021/01/16 09:29:48;;;;;;;;;;;1.80;98.00;;;;;;5097969;28;19951;-81
2021/01/16 09:32:29;;;;;;;;;;;1.80;98.00;;;;;;5097646;28;20323;-82
2021/01/16 09:34:54;;;;;;;;;;;1.80;98.20;;;;;;5097665;28;19903;-81
2021/01/16 09:37:22;;;;;;;;;;;1.80;97.80;;;;;;5115864;28;19904;-82
2021/01/16 09:39:58;;;;;;;;;;;1.80;97.90;;;;;;5097747;28;19911;-81
2021/01/16 09:42:24;;;;;;;;;;;1.80;97.70;;;;;;5097506;28;20006;-81
2021/01/16 09:44:53;;;;;;;;;;;1.90;97.40;;;;;;5097493;28;20012;-82
2021/01/16 09:47:25;;;;;;;;;;;1.90;97.00;;;;;;5097648;28;19906;-81
2021/01/16 09:49:51;;;;;;;;;;;1.90;97.10;;;;;;5097574;28;19904;-81
2021/01/16 09:52:16;;;;;;;;;;;1.90;96.90;;;;;;5097499;28;19904;-81
2021/01/16 09:54:42;;;;;;;;;;;1.90;96.50;;;;;;5115516;28;19972;-81
2021/01/16 09:57:08;;;;;;;;;;;1.90;96.40;;;;;;5094055;28;19916;-81
2021/01/16 09:59:33;;;;;;;;;;;1.90;96.30;;;;;;5093950;28;20007;-81
2021/01/16 10:02:09;;;;;;;;;;;1.90;96.20;;;;;;5093963;28;19911;-81
2021/01/16 10:04:42;;;;;;;;;;;1.90;96.10;;;;;;5095265;28;19910;-81
2021/01/16 10:07:08;;;;;;;;;;;2.00;96.10;;;;;;5093913;28;19904;-81
2021/01/16 10:09:41;;;;;;;;;;;2.00;96.20;;;;;;5095231;28;20319;-81
2021/01/16 10:12:06;;;;;;;;;;;2.00;96.00;;;;;;5093906;28;20264;-81
2021/01/16 10:14:35;;;;;;;;;;;2.00;95.80;;;;;;5093720;28;20367;-81
2021/01/16 10:17:08;;;;;;;;;;;2.00;95.40;;;;;;5093035;28;19908;-81
2021/01/16 10:19:38;;;;;;;;;;;2.10;95.50;;;;;;5093558;28;19904;-81
2021/01/16 10:22:03;;;;;;;;;;;2.10;95.50;;;;;;5093636;28;19908;-81
2021/01/16 10:24:29;;;;;;;;;;;2.10;95.00;;;;;;5094892;28;20256;-81
2021/01/16 10:26:55;;;;;;;;;;;2.10;94.70;;;;;;5094753;28;20410;-81
2021/01/16 10:29:36;;;;;;;;;;;2.10;94.60;;;;;;5094875;28;19913;-81
2021/01/16 10:32:37;;;;;;;;;;;2.10;94.20;;;;;;5093440;28;19953;-81
2021/01/16 10:35:03;;;;;;;;;;;2.10;94.20;;;;;;5032314;28;19916;-81
2021/01/16 10:37:36;;;;;;;;;;;2.10;93.80;;;;;;5081653;28;19904;-81
2021/01/16 10:40:03;;;;;;;;;;;2.10;93.60;;;;;;5093463;28;19927;-80
2021/01/16 10:42:39;;;;;;;;;;;2.10;93.30;;;;;;5093547;28;19931;-80
2021/01/16 10:45:05;;;;;;;;;;;2.10;92.90;;;;;;5093232;28;20429;-80
2021/01/16 10:47:30;;;;;;;;;;;2.10;92.80;;;;;;5094598;28;19908;-80
2021/01/16 10:50:00;;;;;;;;;;;2.20;92.90;;;;;;5093146;28;20003;-81
2021/01/16 10:52:29;;;;;;;;;;;2.20;93.00;;;;;;5094427;28;19904;-81
2021/01/16 10:54:58;;;;;;;;;;;2.20;93.20;;;;;;5093231;28;19926;-81
2021/01/16 10:57:26;;;;;;;;;;;2.20;93.00;;;;;;5096438;28;19911;-81
2021/01/16 10:59:55;;;;;;;;;;;2.20;92.90;;;;;;5114632;28;20007;-81
2021/01/16 11:02:35;;;;;;;;;;;2.20;93.20;;;;;;5096235;28;19969;-81
2021/01/16 11:05:18;;;;;;;;;;;2.30;93.10;;;;;;5096286;28;19957;-81
2021/01/16 11:07:44;;;;;;;;;;;2.30;92.80;;;;;;5096242;28;19957;-81
2021/01/16 11:10:10;;;;;;;;;;;2.30;92.50;;;;;;5096194;28;19908;-81
2021/01/16 11:12:37;;;;;;;;;;;2.40;92.70;;;;;;5096173;28;20010;-81
2021/01/16 11:15:22;;;;;;;;;;;2.40;92.40;;;;;;5095859;28;19925;-81
2021/01/16 11:17:48;;;;;;;;;;;2.40;92.20;;;;;;5093157;28;19908;-81
2021/01/16 11:20:18;;;;;;;;;;;2.40;92.10;;;;;;5093844;28;19915;-80
2021/01/16 11:22:45;;;;;;;;;;;2.40;92.10;;;;;;5075695;28;19915;-80
2021/01/16 11:25:13;;;;;;;;;;;2.40;91.70;;;;;;5093847;28;19908;-80
2021/01/16 11:27:48;;;;;;;;;;;2.40;91.50;;;;;;5093573;28;20367;-80
2021/01/16 11:30:14;;;;;;;;;;;2.40;90.90;;;;;;5096452;28;19911;-80
2021/01/16 11:32:40;;;;;;;;;;;2.40;90.60;;;;;;5103048;28;19903;-80
2021/01/16 11:35:09;;;;;;;;;;;2.40;90.20;;;;;;5087492;28;19910;-80
2021/01/16 11:37:44;;;;;;;;;;;2.40;90.40;;;;;;5090338;28;19914;-81
2021/01/16 11:40:22;;;;;;;;;;;2.50;90.20;;;;;;5077424;28;19904;-80
2021/01/16 11:42:49;;;;;;;;;;;2.50;89.80;;;;;;5091183;28;19942;-81
2021/01/16 11:45:15;;;;;;;;;;;2.50;89.70;;;;;;5086954;28;19996;-80
2021/01/16 11:47:47;;;;;;;;;;;2.50;88.90;;;;;;5107624;28;20355;-80
2021/01/16 11:50:12;;;;;;;;;;;2.50;89.20;;;;;;5075231;28;19908;-80
2021/01/16 11:52:38;;;;;;;;;;;2.50;88.90;;;;;;5075329;28;19904;-81
2021/01/16 11:55:13;;;;;;;;;;;2.50;89.70;;;;;;5088755;28;19911;-80
2021/01/16 11:57:39;;;;;;;;;;;2.50;89.70;;;;;;5074739;28;19969;-80
2021/01/16 12:00:05;;;;;;;;;;;2.50;89.10;;;;;;5092636;28;19910;-81
2021/01/16 12:02:32;;;;;;;;;;;2.50;89.70;;;;;;5092875;28;20002;-80
2021/01/16 12:04:57;;;;;;;;;;;2.50;88.40;;;;;;5074057;28;19950;-80
2021/01/16 12:07:24;;;;;;;;;;;2.50;89.00;;;;;;5071567;28;19951;-80
2021/01/16 12:09:49;;;;;;;;;;;2.50;88.80;;;;;;5089103;28;20325;-80
2021/01/16 12:12:15;;;;;;;;;;;2.50;89.30;;;;;;5089486;28;19910;-81
2021/01/16 12:14:44;;;;;;;;;;;2.50;88.50;;;;;;5072541;28;19944;-80
2021/01/16 12:17:11;;;;;;;;;;;2.50;89.40;;;;;;5072161;28;19915;-80
2021/01/16 12:19:37;;;;;;;;;;;2.50;89.60;;;;;;5090798;28;19908;-81
2021/01/16 12:22:04;;;;;;;;;;;2.50;89.10;;;;;;5073626;28;20322;-80
2021/01/16 12:24:29;;;;;;;;;;;2.50;88.80;;;;;;5073894;28;20344;-80
2021/01/16 12:26:57;;;;;;;;;;;2.50;88.20;;;;;;5074456;28;19947;-79
2021/01/16 12:29:28;;;;;;;;;;;2.50;89.30;;;;;;5074043;28;19916;-80
2021/01/16 12:32:06;;;;;;;;;;;2.50;88.70;;;;;;5074213;28;19915;-81
2021/01/16 12:34:31;;;;;;;;;;;2.50;88.00;;;;;;5089414;28;19904;-80
2021/01/16 12:36:57;;;;;;;;;;;2.50;88.30;;;;;;5073845;28;19910;-80
2021/01/16 12:39:22;;;;;;;;;;;2.40;87.60;;;;;;5072049;28;19923;-80
2021/01/16 12:41:49;;;;;;;;;;;2.40;87.70;;;;;;5094620;28;19908;-81
2021/01/16 12:44:22;;;;;;;;;;;2.40;87.70;;;;;;5076656;28;19908;-80
2021/01/16 12:46:48;;;;;;;;;;;2.40;88.10;;;;;;5075406;28;19957;-80
2021/01/16 12:49:14;;;;;;;;;;;2.40;86.80;;;;;;5077540;28;19912;-80
2021/01/16 12:51:39;;;;;;;;;;;2.40;86.60;;;;;;5074828;28;19904;-80
2021/01/16 12:54:11;;;;;;;;;;;2.40;87.30;;;;;;5077205;28;20351;-80
2021/01/16 12:56:37;;;;;;;;;;;2.40;86.70;;;;;;5084480;28;19916;-80
2021/01/16 12:59:02;;;;;;;;;;;2.40;86.70;;;;;;5097620;28;20332;-81
2021/01/16 13:01:28;;;;;;;;;;;2.40;86.80;;;;;;5110772;28;20371;-81
2021/01/16 13:03:54;;;;;;;;;;;2.40;87.30;;;;;;5095654;28;19982;-81
2021/01/16 13:06:19;;;;;;;;;;;2.40;87.00;;;;;;5112170;28;19907;-80
2021/01/16 13:08:45;;;;;;;;;;;2.30;86.40;;;;;;5095887;28;19966;-80
2021/01/16 13:11:13;;;;;;;;;;;2.40;86.30;;;;;;5093818;28;20363;-81
2021/01/16 13:13:38;;;;;;;;;;;2.30;86.60;;;;;;5114218;28;19935;-80
2021/01/16 13:16:04;;;;;;;;;;;2.30;87.20;;;;;;5110291;28;19954;-80
2021/01/16 13:18:34;;;;;;;;;;;2.30;86.20;;;;;;5093384;28;20018;-81
2021/01/16 13:21:01;;;;;;;;;;;2.30;86.40;;;;;;5113924;28;19908;-80
2021/01/16 13:23:45;;;;;;;;;;;2.30;86.30;;;;;;5094901;28;20007;-80
2021/01/16 13:26:11;;;;;;;;;;;2.30;86.20;;;;;;5114790;28;19926;-80
2021/01/16 13:28:38;;;;;;;;;;;2.30;86.20;;;;;;5096652;28;19994;-80
2021/01/16 13:31:05;;;;;;;;;;;2.30;86.50;;;;;;5094327;28;20659;-80
2021/01/16 13:33:31;;;;;;;;;;;2.30;86.60;;;;;;5093044;28;19950;-80
2021/01/16 13:35:56;;;;;;;;;;;2.30;86.50;;;;;;5114335;28;19939;-80
2021/01/16 13:38:23;;;;;;;;;;;2.30;86.80;;;;;;5096443;28;19904;-81
2021/01/16 13:41:04;;;;;;;;;;;2.30;86.60;;;;;;5092235;28;19904;-80
2021/01/16 13:43:29;;;;;;;;;;;2.30;86.20;;;;;;5092341;28;19907;-80
2021/01/16 13:45:56;;;;;;;;;;;2.30;86.60;;;;;;5111337;28;19908;-80
2021/01/16 13:48:22;;;;;;;;;;;2.30;87.00;;;;;;5092805;28;19903;-80
2021/01/16 13:50:48;;;;;;;;;;;2.30;87.40;;;;;;5113819;28;19904;-80
2021/01/16 13:53:13;;;;;;;;;;;2.30;87.00;;;;;;5088588;28;19958;-81
2021/01/16 13:55:40;;;;;;;;;;;2.20;86.70;;;;;;5113427;28;19964;-80
2021/01/16 13:58:06;;;;;;;;;;;2.20;86.60;;;;;;5089751;28;19904;-79
2021/01/16 14:00:40;;;;;;;;;;;2.20;85.70;;;;;;5084666;28;19908;-80
2021/01/16 14:03:06;;;;;;;;;;;2.20;85.30;;;;;;5070558;28;19916;-81
2021/01/16 14:05:31;;;;;;;;;;;2.20;85.10;;;;;;5066313;28;20421;-80
2021/01/16 14:08:08;;;;;;;;;;;2.20;84.40;;;;;;5089448;28;19903;-81
2021/01/16 14:10:34;;;;;;;;;;;2.10;83.80;;;;;;5091171;28;19994;-80
2021/01/16 14:13:10;;;;;;;;;;;2.10;83.10;;;;;;5084228;28;19947;-80
2021/01/16 14:15:36;;;;;;;;;;;2.10;83.80;;;;;;5089155;28;19908;-80
2021/01/16 14:18:02;;;;;;;;;;;2.10;84.20;;;;;;5075108;28;19911;-80
2021/01/16 14:20:35;;;;;;;;;;;2.10;83.00;;;;;;5091841;28;20003;-80
2021/01/16 14:23:00;;;;;;;;;;;2.10;81.80;;;;;;5061632;28;19930;-80
2021/01/16 14:25:27;;;;;;;;;;;2.10;82.70;;;;;;5080570;28;19987;-80
2021/01/16 14:27:53;;;;;;;;;;;2.00;82.90;;;;;;5070804;28;19908;-80
2021/01/16 14:30:20;;;;;;;;;;;2.00;82.00;;;;;;5093155;28;19908;-80
2021/01/16 14:32:56;;;;;;;;;;;2.00;82.40;;;;;;5093842;28;20335;-80
2021/01/16 14:35:21;;;;;;;;;;;2.00;81.70;;;;;;5093722;28;19942;-80
2021/01/16 14:37:54;;;;;;;;;;;2.00;82.30;;;;;;5110739;28;20336;-80